createdAt,value
2023-05-16T05:01:10.263Z,537.00
2023-05-16T05:02:10.258Z,538.00
2023-05-16T05:03:10.339Z,540.00
2023-05-16T05:04:10.320Z,540.00
2023-05-16T05:05:10.395Z,539.00
2023-05-16T05:06:10.371Z,539.00
2023-05-16T05:07:10.343Z,536.00
2023-05-16T05:08:10.412Z,533.00
2023-05-16T05:09:10.453Z,535.00
2023-05-16T05:10:10.490Z,535.00
2023-05-16T05:11:10.516Z,535.00
2023-05-16T05:12:10.552Z,534.00
2023-05-16T05:13:10.582Z,534.00
2023-05-16T05:14:10.595Z,535.00
2023-05-16T05:15:10.606Z,535.00
2023-05-16T05:16:10.583Z,537.00
2023-05-16T05:17:10.648Z,542.00
2023-05-16T05:18:10.692Z,543.00
2023-05-16T05:19:10.676Z,545.00
2023-05-16T05:20:10.615Z,543.00
2023-05-16T05:22:29.756Z,538.00
2023-05-16T05:23:29.711Z,536.00
2023-05-16T05:24:29.734Z,538.00
2023-05-16T05:25:29.804Z,537.00
2023-05-16T05:26:29.703Z,536.00
2023-05-16T05:27:29.713Z,536.00
2023-05-16T05:28:29.723Z,537.00
2023-05-16T05:29:29.674Z,534.00
2023-05-16T05:30:29.673Z,533.00
2023-05-16T05:31:29.689Z,533.00
2023-05-16T05:32:29.868Z,534.00
2023-05-16T05:33:29.762Z,535.00
2023-05-16T05:34:29.664Z,533.00
2023-05-16T05:35:29.864Z,532.00
2023-05-16T05:36:29.674Z,531.00
2023-05-16T05:37:29.628Z,536.00
2023-05-16T05:38:29.667Z,543.00
2023-05-16T05:39:29.600Z,553.00
2023-05-16T05:40:29.614Z,560.00
2023-05-16T05:41:29.628Z,563.00
2023-05-16T05:42:29.575Z,568.00
2023-05-16T05:43:29.554Z,572.00
2023-05-16T05:44:29.572Z,578.00
2023-05-16T05:45:29.861Z,584.00
2023-05-16T05:46:29.605Z,583.00
2023-05-16T05:47:29.603Z,579.00
2023-05-16T05:48:29.545Z,582.00
2023-05-16T05:49:29.549Z,582.00
2023-05-16T05:50:29.533Z,587.00
2023-05-16T05:51:29.546Z,616.00
2023-05-16T05:52:29.551Z,616.00
2023-05-16T05:53:29.480Z,617.00
2023-05-16T05:54:29.527Z,623.00
2023-05-16T05:55:29.630Z,628.00
2023-05-16T05:56:29.559Z,632.00
2023-05-16T05:57:29.510Z,640.00
2023-05-16T05:58:29.466Z,642.00
2023-05-16T05:59:29.509Z,653.00
2023-05-16T06:00:29.559Z,665.00
2023-05-16T06:01:29.439Z,665.00
2023-05-16T06:02:29.511Z,670.00
2023-05-16T06:03:29.484Z,677.00
2023-05-16T06:04:29.415Z,694.00
2023-05-16T06:05:29.802Z,729.00
2023-05-16T06:06:29.443Z,749.00
2023-05-16T06:07:29.433Z,751.00
2023-05-16T06:08:29.452Z,772.00
2023-05-16T06:09:29.412Z,772.00
2023-05-16T06:10:29.427Z,780.00
2023-05-16T06:11:29.428Z,792.00
2023-05-16T06:12:29.473Z,798.00
2023-05-16T06:13:29.488Z,798.00
2023-05-16T06:14:29.557Z,801.00
2023-05-16T06:15:29.830Z,801.00
2023-05-16T06:16:29.673Z,802.00
2023-05-16T06:17:29.652Z,801.00
2023-05-16T06:18:29.755Z,808.00
2023-05-16T06:19:29.673Z,811.00
2023-05-16T06:20:29.689Z,814.00
2023-05-16T06:21:29.732Z,822.00
2023-05-16T06:22:29.759Z,823.00
2023-05-16T06:23:29.782Z,827.00
2023-05-16T06:24:29.855Z,831.00
2023-05-16T06:25:30.035Z,831.00
2023-05-16T06:26:29.899Z,833.00
2023-05-16T06:27:29.947Z,832.00
2023-05-16T06:28:29.983Z,828.00
2023-05-16T06:29:29.994Z,831.00
2023-05-16T06:30:30.008Z,831.00
2023-05-16T06:31:30.125Z,833.00
2023-05-16T06:32:30.105Z,833.00
2023-05-16T06:33:30.139Z,830.00
2023-05-16T06:34:30.146Z,827.00
2023-05-16T06:35:30.255Z,829.00
2023-05-16T06:36:30.239Z,832.00
2023-05-16T06:37:30.220Z,832.00
2023-05-16T06:38:30.239Z,832.00
2023-05-16T06:39:30.281Z,830.00
2023-05-16T06:40:30.283Z,833.00
2023-05-16T06:41:30.308Z,837.00
2023-05-16T06:42:30.341Z,837.00
2023-05-16T06:43:30.370Z,837.00
2023-05-16T06:44:30.398Z,838.00
2023-05-16T06:45:30.444Z,838.00
2023-05-16T06:46:30.426Z,839.00
2023-05-16T06:47:30.500Z,843.00
2023-05-16T06:48:30.494Z,841.00
2023-05-16T06:49:30.532Z,841.00
2023-05-16T06:50:30.549Z,841.00
2023-05-16T06:51:30.547Z,841.00
2023-05-16T06:52:30.562Z,839.00
2023-05-16T06:53:30.709Z,839.00
2023-05-16T06:54:30.560Z,835.00
2023-05-16T06:55:30.719Z,833.00
2023-05-16T06:56:30.602Z,833.00
2023-05-16T06:57:30.672Z,831.00
2023-05-16T06:58:30.632Z,831.00
2023-05-16T06:59:30.675Z,829.00
2023-05-16T07:00:30.693Z,829.00
2023-05-16T07:01:30.723Z,830.00
2023-05-16T07:02:30.829Z,829.00
2023-05-16T07:03:30.891Z,834.00
2023-05-16T07:04:30.724Z,838.00
2023-05-16T07:05:30.736Z,836.00
2023-05-16T07:06:30.763Z,837.00
2023-05-16T07:07:30.752Z,834.00
2023-05-16T07:08:30.787Z,835.00
2023-05-16T07:09:30.790Z,836.00
2023-05-16T07:10:30.784Z,834.00
2023-05-16T07:11:30.768Z,835.00
2023-05-16T07:12:30.802Z,833.00
2023-05-16T07:13:30.805Z,832.00
2023-05-16T07:14:30.920Z,835.00
2023-05-16T07:15:30.886Z,834.00
2023-05-16T07:16:30.903Z,831.00
2023-05-16T07:17:30.916Z,829.00
2023-05-16T07:18:30.962Z,828.00
2023-05-16T07:19:30.948Z,824.00
2023-05-16T07:20:30.924Z,819.00
2023-05-16T07:21:30.928Z,813.00
2023-05-16T07:22:30.948Z,806.00
2023-05-16T07:23:30.979Z,803.00
2023-05-16T07:24:30.998Z,796.00
2023-05-16T07:25:31.085Z,717.00
2023-05-16T07:26:31.076Z,704.00
2023-05-16T07:27:31.127Z,692.00
2023-05-16T07:28:31.156Z,685.00
2023-05-16T07:29:31.223Z,680.00
2023-05-16T07:30:31.255Z,677.00
2023-05-16T07:31:31.339Z,677.00
2023-05-16T07:32:31.309Z,671.00
2023-05-16T07:33:31.302Z,669.00
2023-05-16T07:34:31.316Z,657.00
2023-05-16T07:35:31.353Z,644.00
2023-05-16T07:36:31.355Z,631.00
2023-05-16T07:37:31.364Z,609.00
2023-05-16T07:38:31.384Z,607.00
2023-05-16T07:39:31.434Z,608.00
2023-05-16T07:40:31.503Z,605.00
2023-05-16T07:41:31.581Z,610.00
2023-05-16T07:42:31.564Z,622.00
2023-05-16T07:43:31.588Z,632.00
2023-05-16T07:44:31.610Z,649.00
2023-05-16T07:45:31.625Z,667.00
2023-05-16T07:46:31.647Z,701.00
2023-05-16T07:47:31.669Z,712.00
2023-05-16T07:48:31.721Z,730.00
2023-05-16T07:49:31.760Z,743.00
2023-05-16T07:50:31.765Z,747.00
2023-05-16T07:51:31.794Z,768.00
2023-05-16T07:52:31.834Z,789.00
2023-05-16T07:53:32.000Z,816.00
2023-05-16T07:54:31.787Z,815.00
2023-05-16T07:55:31.841Z,822.00
2023-05-16T07:56:31.892Z,828.00
2023-05-16T07:57:31.893Z,829.00
2023-05-16T07:58:31.977Z,834.00
2023-05-16T07:59:32.084Z,842.00
2023-05-16T08:00:32.109Z,844.00
2023-05-16T08:01:32.130Z,848.00
2023-05-16T08:02:32.318Z,850.00
2023-05-16T08:03:32.327Z,851.00
2023-05-16T08:04:32.274Z,856.00
2023-05-16T08:05:32.405Z,858.00
2023-05-16T08:06:32.373Z,862.00
2023-05-16T08:07:32.417Z,864.00
2023-05-16T08:08:32.467Z,862.00
2023-05-16T08:09:32.471Z,856.00
2023-05-16T08:10:32.548Z,849.00
2023-05-16T08:11:32.580Z,840.00
2023-05-16T08:12:32.659Z,838.00
2023-05-16T08:13:32.671Z,838.00
2023-05-16T08:14:32.734Z,831.00
2023-05-16T08:15:32.792Z,830.00
2023-05-16T08:16:32.884Z,829.00
2023-05-16T08:17:32.887Z,813.00
2023-05-16T08:18:32.915Z,802.00
2023-05-16T08:19:32.960Z,790.00
2023-05-16T08:20:33.041Z,781.00
2023-05-16T08:21:33.113Z,788.00
2023-05-16T08:22:33.102Z,781.00
2023-05-16T08:23:33.156Z,777.00
2023-05-16T08:24:33.180Z,777.00
2023-05-16T08:25:33.212Z,777.00
2023-05-16T08:26:33.284Z,780.00
2023-05-16T08:27:33.285Z,781.00
2023-05-16T08:28:33.336Z,782.00
2023-05-16T08:29:33.358Z,809.00
2023-05-16T08:30:33.416Z,825.00
2023-05-16T08:31:33.575Z,836.00
2023-05-16T08:32:33.565Z,899.00
2023-05-16T08:33:33.501Z,914.00
2023-05-16T08:34:33.546Z,928.00
2023-05-16T08:35:33.566Z,932.00
2023-05-16T08:36:33.584Z,930.00
2023-05-16T08:37:33.576Z,927.00
2023-05-16T08:38:33.628Z,931.00
2023-05-16T08:39:33.651Z,948.00
2023-05-16T08:40:33.641Z,969.00
2023-05-16T08:41:33.642Z,982.00
2023-05-16T08:42:33.635Z,989.00
2023-05-16T08:43:33.642Z,1054.00
2023-05-16T08:44:33.645Z,1057.00
2023-05-16T08:45:33.626Z,1049.00
2023-05-16T08:46:33.632Z,1050.00
2023-05-16T08:47:33.680Z,1061.00
2023-05-16T08:48:33.626Z,1065.00
2023-05-16T08:49:33.639Z,1076.00
2023-05-16T08:50:33.636Z,1089.00
2023-05-16T08:51:33.660Z,1094.00
2023-05-16T08:52:33.656Z,1096.00
2023-05-16T08:53:33.676Z,1123.00
2023-05-16T08:54:33.698Z,1129.00
2023-05-16T08:55:33.694Z,1135.00
2023-05-16T08:56:33.673Z,1158.00
2023-05-16T08:57:33.696Z,1190.00
2023-05-16T08:58:33.705Z,1204.00
2023-05-16T08:59:33.710Z,1223.00
2023-05-16T09:00:33.739Z,1226.00
2023-05-16T09:01:33.880Z,1250.00
2023-05-16T09:02:33.761Z,1279.00
2023-05-16T09:03:33.810Z,1273.00
2023-05-16T09:04:33.739Z,1262.00
2023-05-16T09:05:33.758Z,1247.00
2023-05-16T09:06:33.755Z,1200.00
2023-05-16T09:07:33.762Z,1189.00
2023-05-16T09:08:33.749Z,1201.00
2023-05-16T09:09:33.755Z,1197.00
2023-05-16T09:10:33.753Z,1188.00
2023-05-16T09:11:36.679Z,1195.00
2023-05-16T09:12:33.731Z,1184.00
2023-05-16T09:13:33.779Z,1162.00
2023-05-16T09:14:33.742Z,1143.00
2023-05-16T09:15:33.734Z,1145.00
2023-05-16T09:16:33.753Z,1149.00
2023-05-16T09:17:40.018Z,1152.00
2023-05-16T09:18:34.881Z,1147.00
2023-05-16T09:19:33.777Z,1137.00
2023-05-16T09:20:33.714Z,1127.00
2023-05-16T09:21:33.742Z,1111.00
2023-05-16T09:22:33.686Z,1112.00
2023-05-16T09:23:35.817Z,1124.00
2023-05-16T09:24:33.695Z,1128.00
2023-05-16T09:25:34.106Z,1138.00
2023-05-16T09:26:33.676Z,1137.00
2023-05-16T09:27:33.646Z,1148.00
2023-05-16T09:28:33.643Z,1164.00
2023-05-16T09:29:35.426Z,1157.00
2023-05-16T09:30:33.675Z,1148.00
2023-05-16T09:31:33.622Z,1161.00
2023-05-16T09:32:33.685Z,1185.00
2023-05-16T09:33:33.576Z,1196.00
2023-05-16T09:34:33.595Z,1190.00
2023-05-16T09:36:33.579Z,1206.00
2023-05-16T09:37:33.555Z,1209.00
2023-05-16T09:38:33.579Z,1209.00
2023-05-16T09:39:33.644Z,1217.00
2023-05-16T09:40:33.585Z,1233.00
2023-05-16T09:41:33.535Z,1244.00
2023-05-16T09:42:33.571Z,1275.00
2023-05-16T09:43:35.641Z,1279.00
2023-05-16T09:44:33.698Z,1285.00
2023-05-16T09:45:33.498Z,1291.00
2023-05-16T09:46:33.558Z,1301.00
2023-05-16T09:47:33.527Z,1293.00
2023-05-16T09:48:33.509Z,1198.00
2023-05-16T09:49:33.468Z,1220.00
2023-05-16T09:50:33.481Z,1236.00
2023-05-16T09:51:34.071Z,1246.00
2023-05-16T09:52:33.470Z,1279.00
2023-05-16T09:53:33.487Z,1280.00
2023-05-16T09:54:33.451Z,1246.00
2023-05-16T09:55:33.751Z,1284.00
2023-05-16T09:56:33.428Z,1290.00
2023-05-16T09:57:33.429Z,1290.00
2023-05-16T09:58:33.413Z,1280.00
2023-05-16T09:59:33.511Z,1262.00
2023-05-16T10:00:33.414Z,1263.00
2023-05-16T10:01:33.388Z,1269.00
2023-05-16T10:02:33.431Z,1273.00
2023-05-16T10:03:33.475Z,1292.00
2023-05-16T10:04:33.403Z,1307.00
2023-05-16T10:05:33.398Z,1313.00
2023-05-16T10:06:33.382Z,1314.00
2023-05-16T10:07:33.336Z,1312.00
2023-05-16T10:08:33.318Z,1314.00
2023-05-16T10:09:33.367Z,1321.00
2023-05-16T10:10:33.331Z,1326.00
2023-05-16T10:11:33.333Z,1321.00
2023-05-16T10:12:33.314Z,1319.00
2023-05-16T10:13:33.313Z,1320.00
2023-05-16T10:14:33.306Z,1318.00
2023-05-16T10:15:33.290Z,1332.00
2023-05-16T10:16:33.359Z,1339.00
2023-05-16T10:17:33.311Z,1333.00
2023-05-16T10:18:33.286Z,1331.00
2023-05-16T10:19:33.319Z,1285.00
2023-05-16T10:20:33.260Z,1272.00
2023-05-16T10:21:33.254Z,1265.00
2023-05-16T10:22:33.216Z,1244.00
2023-05-16T10:23:33.247Z,1254.00
2023-05-16T10:24:33.202Z,1255.00
2023-05-16T10:25:33.229Z,1255.00
2023-05-16T10:26:33.222Z,1258.00
2023-05-16T10:27:33.238Z,1255.00
2023-05-16T10:28:33.204Z,1252.00
2023-05-16T10:29:40.040Z,1243.00
2023-05-16T10:30:34.205Z,1235.00
2023-05-16T10:31:33.208Z,1229.00
2023-05-16T10:32:33.182Z,1144.00
2023-05-16T10:33:33.153Z,1170.00
2023-05-16T10:34:33.167Z,1179.00
2023-05-16T10:35:33.165Z,1182.00
2023-05-16T10:36:33.150Z,1184.00
2023-05-16T10:37:33.114Z,1182.00
2023-05-16T10:38:33.126Z,1177.00
2023-05-16T10:39:33.103Z,1160.00
2023-05-16T10:40:33.094Z,1137.00
2023-05-16T10:41:33.120Z,1070.00
2023-05-16T10:42:33.080Z,996.00
2023-05-16T10:43:33.078Z,963.00
2023-05-16T10:44:33.073Z,844.00
2023-05-16T10:45:33.220Z,762.00
2023-05-16T10:46:33.121Z,731.00
2023-05-16T10:47:33.092Z,720.00
2023-05-16T10:48:33.114Z,709.00
2023-05-16T10:49:33.121Z,699.00
2023-05-16T10:50:33.096Z,687.00
2023-05-16T10:51:33.098Z,634.00
2023-05-16T10:52:33.257Z,637.00
2023-05-16T10:53:33.120Z,639.00
2023-05-16T10:54:34.178Z,646.00
2023-05-16T10:55:33.118Z,665.00
2023-05-16T10:56:33.101Z,687.00
2023-05-16T10:57:33.133Z,697.00
2023-05-16T10:58:33.101Z,691.00
2023-05-16T10:59:33.114Z,677.00
2023-05-16T11:00:33.126Z,638.00
2023-05-16T11:01:33.149Z,632.00
2023-05-16T11:02:33.217Z,628.00
2023-05-16T11:03:33.217Z,626.00
2023-05-16T11:04:33.149Z,621.00
2023-05-16T11:05:33.158Z,617.00
2023-05-16T11:06:33.178Z,614.00
2023-05-16T11:07:33.187Z,613.00
2023-05-16T11:08:33.207Z,615.00
2023-05-16T11:09:33.191Z,617.00
2023-05-16T11:10:33.220Z,618.00
2023-05-16T11:11:33.252Z,620.00
2023-05-16T11:12:33.229Z,621.00
2023-05-16T11:13:33.218Z,622.00
2023-05-16T11:14:33.262Z,621.00
2023-05-16T11:15:33.241Z,622.00
2023-05-16T11:16:33.300Z,651.00
2023-05-16T11:17:33.299Z,664.00
2023-05-16T11:18:33.449Z,675.00
2023-05-16T11:19:33.304Z,712.00
2023-05-16T11:20:33.333Z,723.00
2023-05-16T11:21:33.330Z,727.00
2023-05-16T11:22:33.404Z,732.00
2023-05-16T11:23:33.410Z,742.00
2023-05-16T11:24:33.550Z,747.00
2023-05-16T11:25:33.510Z,749.00
2023-05-16T11:26:33.578Z,753.00
2023-05-16T11:27:33.643Z,751.00
2023-05-16T11:28:33.665Z,754.00
2023-05-16T11:29:33.728Z,756.00
2023-05-16T11:30:33.750Z,764.00
2023-05-16T11:31:33.857Z,787.00
2023-05-16T11:32:33.845Z,807.00
2023-05-16T11:33:33.875Z,813.00
2023-05-16T11:34:33.845Z,831.00
2023-05-16T11:35:33.888Z,838.00
2023-05-16T11:36:33.928Z,837.00
2023-05-16T11:37:33.898Z,836.00
2023-05-16T11:38:33.948Z,847.00
2023-05-16T11:39:34.038Z,862.00
2023-05-16T11:40:34.008Z,866.00
2023-05-16T11:41:33.953Z,869.00
2023-05-16T11:42:34.093Z,871.00
2023-05-16T11:43:33.990Z,872.00
2023-05-16T11:44:34.021Z,872.00
2023-05-16T11:45:33.988Z,868.00
2023-05-16T11:46:34.056Z,872.00
2023-05-16T11:47:34.042Z,873.00
2023-05-16T11:48:36.511Z,876.00
2023-05-16T11:49:34.041Z,878.00
2023-05-16T11:50:34.027Z,884.00
2023-05-16T11:51:34.000Z,891.00
2023-05-16T11:52:34.022Z,891.00
2023-05-16T11:53:34.010Z,893.00
2023-05-16T11:54:34.005Z,892.00
2023-05-16T11:55:41.718Z,897.00
2023-05-16T11:56:35.026Z,911.00
2023-05-16T11:57:33.978Z,921.00
2023-05-16T11:58:33.967Z,1010.00
2023-05-16T11:59:33.979Z,922.00
2023-05-16T12:00:33.969Z,916.00
2023-05-16T12:01:33.949Z,997.00
2023-05-16T12:02:34.014Z,1006.00
2023-05-16T12:03:34.080Z,1024.00
2023-05-16T12:04:34.114Z,1046.00
2023-05-16T12:05:35.060Z,1071.00
2023-05-16T12:06:33.916Z,1074.00
2023-05-16T12:07:33.916Z,1071.00
2023-05-16T12:08:33.897Z,1070.00
2023-05-16T12:09:33.897Z,1057.00
2023-05-16T12:10:33.867Z,1031.00
2023-05-16T12:11:33.884Z,987.00
2023-05-16T12:12:33.917Z,977.00
2023-05-16T12:13:33.837Z,974.00
2023-05-16T12:14:33.830Z,968.00
2023-05-16T12:15:33.852Z,961.00
2023-05-16T12:16:33.867Z,954.00
2023-05-16T12:17:33.854Z,943.00
2023-05-16T12:18:33.817Z,932.00
2023-05-16T12:19:33.895Z,924.00
2023-05-16T12:20:33.769Z,918.00
2023-05-16T12:21:33.788Z,912.00
2023-05-16T12:22:33.785Z,901.00
2023-05-16T12:23:33.810Z,879.00
2023-05-16T12:24:33.788Z,868.00
2023-05-16T12:25:33.760Z,867.00
2023-05-16T12:26:33.764Z,862.00
2023-05-16T12:27:33.751Z,861.00
2023-05-16T12:28:33.785Z,857.00
2023-05-16T12:29:33.741Z,854.00
2023-05-16T12:30:33.732Z,851.00
2023-05-16T12:31:33.805Z,836.00
2023-05-16T12:32:33.901Z,827.00
2023-05-16T12:33:33.737Z,818.00
2023-05-16T12:34:33.687Z,805.00
2023-05-16T12:35:33.708Z,792.00
2023-05-16T12:36:33.686Z,784.00
2023-05-16T12:37:33.705Z,775.00
2023-05-16T12:38:33.732Z,767.00
2023-05-16T12:39:34.992Z,760.00
2023-05-16T12:40:33.844Z,755.00
2023-05-16T12:41:33.831Z,749.00
2023-05-16T12:42:33.883Z,743.00
2023-05-16T12:43:33.965Z,735.00
2023-05-16T12:44:33.959Z,728.00
2023-05-16T12:45:35.447Z,721.00
2023-05-16T12:46:34.030Z,713.00
2023-05-16T12:47:34.065Z,703.00
2023-05-16T12:48:34.080Z,697.00
2023-05-16T12:49:34.076Z,693.00
2023-05-16T12:50:34.146Z,691.00
2023-05-16T12:51:35.471Z,687.00
2023-05-16T12:52:34.186Z,682.00
2023-05-16T12:53:34.255Z,680.00
2023-05-16T12:54:34.309Z,678.00
2023-05-16T12:55:34.324Z,675.00
2023-05-16T12:56:34.389Z,671.00
2023-05-16T12:57:36.342Z,668.00
2023-05-16T12:58:34.466Z,662.00
2023-05-16T12:59:34.438Z,657.00
2023-05-16T13:00:34.445Z,655.00
2023-05-16T13:01:34.400Z,652.00
2023-05-16T13:02:34.533Z,648.00
2023-05-16T13:03:36.145Z,646.00
2023-05-16T13:04:34.431Z,642.00
2023-05-16T13:05:34.356Z,638.00
2023-05-16T13:06:45.382Z,637.00
2023-05-16T13:07:35.366Z,634.00
2023-05-16T13:08:34.367Z,636.00
2023-05-16T13:09:34.392Z,635.00
2023-05-16T13:10:34.413Z,635.00
2023-05-16T13:11:34.339Z,635.00
2023-05-16T13:12:34.310Z,636.00
2023-05-16T13:13:36.432Z,635.00
2023-05-16T13:14:34.381Z,632.00
2023-05-16T13:15:34.362Z,631.00
2023-05-16T13:16:34.517Z,628.00
2023-05-16T13:17:34.506Z,626.00
2023-05-16T13:18:34.604Z,622.00
2023-05-16T13:19:34.579Z,619.00
2023-05-16T13:20:34.628Z,617.00
2023-05-16T13:21:34.683Z,615.00
2023-05-16T13:22:34.739Z,613.00
2023-05-16T13:23:34.785Z,614.00
2023-05-16T13:24:34.840Z,612.00
2023-05-16T13:25:34.894Z,610.00
2023-05-16T13:26:34.957Z,609.00
2023-05-16T13:27:35.030Z,608.00
2023-05-16T13:28:35.060Z,608.00
2023-05-16T13:29:35.112Z,609.00
2023-05-16T13:30:35.168Z,609.00
2023-05-16T13:31:35.286Z,609.00
2023-05-16T13:32:35.509Z,608.00
2023-05-16T13:33:35.395Z,606.00
2023-05-16T13:34:35.425Z,601.00
2023-05-16T13:35:35.477Z,597.00
2023-05-16T13:36:52.239Z,598.00
2023-05-16T13:37:36.520Z,597.00
2023-05-16T13:38:35.508Z,597.00
2023-05-16T13:39:35.483Z,597.00
2023-05-16T13:40:35.547Z,596.00
2023-05-16T13:41:35.491Z,598.00
2023-05-16T13:42:35.460Z,597.00
2023-05-16T13:43:35.493Z,595.00
2023-05-16T13:44:35.487Z,596.00
2023-05-16T13:45:35.584Z,595.00
2023-05-16T13:46:35.677Z,594.00
2023-05-16T13:47:35.805Z,591.00
2023-05-16T13:48:35.856Z,589.00
2023-05-16T13:49:35.795Z,587.00
2023-05-16T13:50:35.963Z,587.00
2023-05-16T13:51:35.868Z,586.00
2023-05-16T13:52:37.871Z,588.00
2023-05-16T13:53:36.023Z,593.00
2023-05-16T13:54:36.059Z,595.00
2023-05-16T13:55:36.093Z,597.00
2023-05-16T13:56:36.204Z,597.00
2023-05-16T13:57:36.209Z,597.00
2023-05-16T13:58:43.005Z,595.00
2023-05-16T14:00:10.890Z,593.00
2023-05-16T14:01:37.491Z,592.00
2023-05-16T14:02:36.295Z,591.00
2023-05-16T14:03:36.270Z,592.00
2023-05-16T14:04:36.330Z,592.00
2023-05-16T14:05:36.233Z,593.00
2023-05-16T14:06:36.243Z,596.00
2023-05-16T14:07:36.208Z,597.00
2023-05-16T14:08:36.272Z,599.00
2023-05-16T14:09:36.202Z,605.00
2023-05-16T14:10:36.184Z,608.00
2023-05-16T14:11:36.189Z,618.00
2023-05-16T14:12:36.199Z,624.00
2023-05-16T14:13:38.637Z,629.00
2023-05-16T14:14:36.184Z,637.00
2023-05-16T14:15:36.147Z,640.00
2023-05-16T14:16:36.248Z,642.00
2023-05-16T14:17:36.202Z,648.00
2023-05-16T14:18:36.165Z,653.00
2023-05-16T14:19:36.228Z,657.00
2023-05-16T14:20:36.159Z,660.00
2023-05-16T14:21:36.190Z,662.00
2023-05-16T14:22:36.099Z,666.00
2023-05-16T14:23:36.104Z,669.00
2023-05-16T14:24:36.152Z,671.00
2023-05-16T14:25:36.072Z,674.00
2023-05-16T14:26:36.067Z,680.00
2023-05-16T14:27:36.063Z,681.00
2023-05-16T14:28:36.060Z,678.00
2023-05-16T14:29:36.080Z,679.00
2023-05-16T14:30:36.046Z,684.00
2023-05-16T14:31:36.101Z,690.00
2023-05-16T14:32:36.032Z,692.00
2023-05-16T14:33:36.024Z,695.00
2023-05-16T14:34:36.036Z,693.00
2023-05-16T14:35:36.013Z,694.00
2023-05-16T14:36:36.197Z,693.00
2023-05-16T14:37:36.002Z,695.00
2023-05-16T14:38:35.997Z,699.00
2023-05-16T14:39:35.985Z,702.00
2023-05-16T14:40:35.995Z,701.00
2023-05-16T14:41:35.958Z,704.00
2023-05-16T14:42:36.658Z,707.00
2023-05-16T14:43:35.931Z,708.00
2023-05-16T14:44:35.962Z,704.00
2023-05-16T14:45:35.954Z,704.00
2023-05-16T14:46:35.969Z,704.00
2023-05-16T14:47:35.970Z,703.00
2023-05-16T14:48:35.958Z,702.00
2023-05-16T14:49:35.931Z,701.00
2023-05-16T14:50:35.887Z,700.00
2023-05-16T14:51:35.888Z,703.00
2023-05-16T14:52:35.940Z,702.00
2023-05-16T14:53:35.890Z,701.00
2023-05-16T14:54:35.858Z,702.00
2023-05-16T14:55:35.860Z,705.00
2023-05-16T14:56:35.854Z,709.00
2023-05-16T14:57:35.850Z,709.00
2023-05-16T14:58:35.845Z,710.00
2023-05-16T14:59:35.882Z,709.00
2023-05-16T15:00:35.844Z,711.00
2023-05-16T15:01:35.894Z,711.00
2023-05-16T15:02:35.914Z,711.00
2023-05-16T15:03:50.697Z,713.00
2023-05-16T15:04:36.791Z,711.00
2023-05-16T15:05:35.787Z,709.00
2023-05-16T15:06:35.773Z,710.00
2023-05-16T15:07:35.786Z,704.00
2023-05-16T15:08:35.799Z,705.00
2023-05-16T15:09:35.772Z,706.00
2023-05-16T15:10:35.781Z,709.00
2023-05-16T15:11:35.792Z,712.00
2023-05-16T15:12:35.828Z,717.00
2023-05-16T15:13:35.796Z,722.00
2023-05-16T15:14:35.778Z,728.00
2023-05-16T15:15:35.789Z,734.00
2023-05-16T15:16:35.717Z,742.00
2023-05-16T15:17:35.720Z,744.00
2023-05-16T15:18:35.745Z,785.00
2023-05-16T15:19:35.692Z,786.00
2023-05-16T15:20:35.691Z,783.00
2023-05-16T15:21:35.671Z,782.00
2023-05-16T15:22:35.682Z,788.00
2023-05-16T15:23:35.672Z,787.00
2023-05-16T15:24:35.906Z,788.00
2023-05-16T15:25:35.656Z,787.00
2023-05-16T15:26:35.665Z,785.00
2023-05-16T15:27:35.657Z,787.00
2023-05-16T15:28:35.625Z,794.00
2023-05-16T15:29:35.603Z,794.00
2023-05-16T15:30:35.644Z,799.00
2023-05-16T15:31:35.631Z,846.00
2023-05-16T15:32:35.716Z,827.00
2023-05-16T15:33:35.688Z,820.00
2023-05-16T15:34:35.708Z,814.00
2023-05-16T15:35:35.702Z,812.00
2023-05-16T15:36:35.762Z,809.00
2023-05-16T15:37:35.777Z,806.00
2023-05-16T15:38:35.736Z,802.00
2023-05-16T15:39:35.796Z,802.00
2023-05-16T15:40:35.898Z,803.00
2023-05-16T15:42:35.849Z,805.00
2023-05-16T15:43:35.877Z,807.00
2023-05-16T15:44:35.933Z,810.00
2023-05-16T15:45:37.280Z,811.00
2023-05-16T15:46:35.949Z,814.00
2023-05-16T15:47:35.933Z,815.00
2023-05-16T15:48:35.886Z,814.00
2023-05-16T15:49:35.902Z,815.00
2023-05-16T15:50:35.876Z,816.00
2023-05-16T15:51:35.879Z,815.00
2023-05-16T15:52:35.886Z,815.00
2023-05-16T15:53:35.852Z,813.00
2023-05-16T15:54:35.873Z,812.00
2023-05-16T15:55:35.876Z,807.00
2023-05-16T15:56:35.950Z,806.00
2023-05-16T15:57:35.831Z,807.00
2023-05-16T15:58:35.817Z,807.00
2023-05-16T15:59:35.831Z,807.00
2023-05-16T16:00:35.837Z,808.00
2023-05-16T16:01:35.836Z,806.00
2023-05-16T16:02:35.948Z,805.00
2023-05-16T16:03:35.913Z,807.00
2023-05-16T16:04:35.789Z,808.00
2023-05-16T16:05:35.777Z,809.00
2023-05-16T16:06:35.741Z,806.00
2023-05-16T16:07:35.756Z,806.00
2023-05-16T16:08:35.729Z,802.00
2023-05-16T16:09:35.747Z,801.00
2023-05-16T16:10:35.698Z,802.00
2023-05-16T16:11:35.720Z,803.00
2023-05-16T16:12:35.916Z,804.00
2023-05-16T16:13:35.706Z,803.00
2023-05-16T16:14:35.714Z,800.00
2023-05-16T16:15:36.159Z,799.00
2023-05-16T16:16:35.800Z,799.00
2023-05-16T16:17:35.735Z,800.00
2023-05-16T16:18:35.702Z,802.00
2023-05-16T16:19:35.694Z,802.00
2023-05-16T16:20:35.643Z,800.00
2023-05-16T16:21:35.701Z,799.00
2023-05-16T16:22:35.641Z,800.00
2023-05-16T16:23:35.638Z,799.00
2023-05-16T16:24:35.616Z,799.00
2023-05-16T16:25:35.642Z,799.00
2023-05-16T16:26:35.640Z,797.00
2023-05-16T16:27:35.634Z,798.00
2023-05-16T16:28:35.610Z,799.00
2023-05-16T16:29:35.610Z,798.00
2023-05-16T16:30:35.610Z,801.00
2023-05-16T16:31:35.645Z,799.00
2023-05-16T16:32:35.625Z,798.00
2023-05-16T16:33:35.594Z,799.00
2023-05-16T16:34:35.577Z,801.00
2023-05-16T16:35:35.567Z,803.00
2023-05-16T16:36:35.546Z,803.00
2023-05-16T16:37:35.550Z,803.00
2023-05-16T16:38:35.521Z,805.00
2023-05-16T16:39:35.499Z,805.00
2023-05-16T16:40:35.511Z,806.00
2023-05-16T16:41:35.525Z,802.00
2023-05-16T16:42:35.541Z,799.00
2023-05-16T16:43:35.505Z,795.00
2023-05-16T16:44:35.477Z,794.00
2023-05-16T16:45:35.523Z,794.00
2023-05-16T16:46:35.628Z,795.00
2023-05-16T16:47:35.625Z,796.00
2023-05-16T16:48:35.655Z,797.00
2023-05-16T16:49:35.673Z,799.00
2023-05-16T16:50:35.684Z,797.00
2023-05-16T16:51:35.787Z,798.00
2023-05-16T16:52:35.820Z,800.00
2023-05-16T16:53:35.863Z,803.00
2023-05-16T16:54:35.991Z,804.00
2023-05-16T16:55:36.522Z,807.00
2023-05-16T16:56:35.956Z,809.00
2023-05-16T16:57:36.009Z,807.00
2023-05-16T16:58:36.025Z,803.00
2023-05-16T16:59:36.082Z,803.00
2023-05-16T17:00:36.276Z,803.00
